createdAt,value
2022-10-01T00:00:07.939Z,21.13
2022-10-01T00:02:38.181Z,21.17
2022-10-01T00:05:07.181Z,21.02
2022-10-01T00:07:38.635Z,21.48
2022-10-01T00:10:07.463Z,21.50
2022-10-01T00:12:35.184Z,21.48
2022-10-01T00:15:06.011Z,21.05
2022-10-01T00:17:35.883Z,20.99
2022-10-01T00:20:10.718Z,21.22
2022-10-01T00:22:41.797Z,21.54
2022-10-01T00:25:09.482Z,21.31
2022-10-01T00:27:36.907Z,21.21
2022-10-01T00:30:05.111Z,21.14
2022-10-01T00:32:32.641Z,21.38
2022-10-01T00:35:02.047Z,20.95
2022-10-01T00:37:29.482Z,21.38
2022-10-01T00:39:56.842Z,21.12
2022-10-01T00:42:26.580Z,21.67
2022-10-01T00:44:53.658Z,21.24
2022-10-01T00:47:27.068Z,21.25
2022-10-01T00:50:00.843Z,21.37
2022-10-01T00:52:32.524Z,21.39
2022-10-01T00:55:05.002Z,21.39
2022-10-01T00:57:33.618Z,21.83
2022-10-01T01:00:04.888Z,21.60
2022-10-01T01:02:32.644Z,21.61
2022-10-01T01:05:00.432Z,21.72
2022-10-01T01:07:31.676Z,21.54
2022-10-01T01:10:00.754Z,21.94
2022-10-01T01:12:40.661Z,21.37
2022-10-01T01:15:15.357Z,21.62
2022-10-01T01:17:52.622Z,21.59
2022-10-01T01:20:37.618Z,21.43
2022-10-01T01:23:25.983Z,21.36
2022-10-01T01:26:02.533Z,21.74
2022-10-01T01:28:34.933Z,22.29
2022-10-01T01:31:08.567Z,22.21
2022-10-01T01:33:39.421Z,22.40
2022-10-01T01:36:11.035Z,21.88
2022-10-01T01:38:44.992Z,21.71
2022-10-01T01:41:14.871Z,21.62
2022-10-01T01:43:48.185Z,21.57
2022-10-01T01:46:17.212Z,21.43
2022-10-01T01:48:46.381Z,21.88
2022-10-01T01:51:19.683Z,21.90
2022-10-01T01:53:49.934Z,21.71
2022-10-01T01:56:17.550Z,21.56
2022-10-01T01:58:47.583Z,21.50
2022-10-01T02:01:38.532Z,21.28
2022-10-01T02:04:09.260Z,21.27
2022-10-01T02:06:52.999Z,21.37
2022-10-01T02:09:27.754Z,21.51
2022-10-01T02:12:04.743Z,21.66
2022-10-01T02:14:40.341Z,21.67
2022-10-01T02:17:14.523Z,21.22
2022-10-01T02:19:50.608Z,21.08
2022-10-01T02:22:23.427Z,21.24
2022-10-01T02:24:56.572Z,21.41
2022-10-01T02:27:29.468Z,21.46
2022-10-01T02:30:02.229Z,21.04
2022-10-01T02:32:31.649Z,21.06
2022-10-01T02:35:01.075Z,20.99
2022-10-01T02:37:29.108Z,21.48
2022-10-01T02:39:58.047Z,21.55
2022-10-01T02:42:28.866Z,21.68
2022-10-01T02:45:00.682Z,21.35
2022-10-01T02:47:32.542Z,21.13
2022-10-01T02:50:01.054Z,21.65
2022-10-01T02:52:35.714Z,21.75
2022-10-01T02:55:09.369Z,21.36
2022-10-01T02:57:37.673Z,21.12
2022-10-01T03:00:09.554Z,21.50
2022-10-01T03:02:37.084Z,21.57
2022-10-01T03:05:05.614Z,21.15
2022-10-01T03:07:34.458Z,21.33
2022-10-01T03:10:02.215Z,21.38
2022-10-01T03:12:29.787Z,21.12
2022-10-01T03:14:57.841Z,21.60
2022-10-01T03:17:27.121Z,21.08
2022-10-01T03:19:54.482Z,21.29
2022-10-01T03:22:23.196Z,21.32
2022-10-01T03:24:50.871Z,21.50
2022-10-01T03:27:18.715Z,21.58
2022-10-01T03:29:46.555Z,21.33
2022-10-01T03:32:15.236Z,21.25
2022-10-01T03:34:44.369Z,21.13
2022-10-01T03:37:11.846Z,21.12
2022-10-01T03:39:39.317Z,21.19
2022-10-01T03:42:06.711Z,21.43
2022-10-01T03:44:34.643Z,21.16
2022-10-01T03:47:02.117Z,20.98
2022-10-01T03:49:29.823Z,21.08
2022-10-01T03:51:58.652Z,20.89
2022-10-01T03:54:26.118Z,21.20
2022-10-01T03:56:53.494Z,21.43
2022-10-01T03:59:20.893Z,20.90
2022-10-01T04:01:48.416Z,21.02
2022-10-01T04:04:16.244Z,20.99
2022-10-01T04:06:43.593Z,21.18
2022-10-01T04:09:12.398Z,21.06
2022-10-01T04:11:39.839Z,21.24
2022-10-01T04:14:07.280Z,21.53
2022-10-01T04:16:34.838Z,20.91
2022-10-01T04:19:02.595Z,21.17
2022-10-01T04:21:30.155Z,20.93
2022-10-01T04:23:57.522Z,21.22
2022-10-01T04:26:26.306Z,21.19
2022-10-01T04:28:54.151Z,20.96
2022-10-01T04:31:21.643Z,21.36
2022-10-01T04:33:49.055Z,21.08
2022-10-01T04:36:16.544Z,21.43
2022-10-01T04:38:43.921Z,21.66
2022-10-01T04:41:11.265Z,21.52
2022-10-01T04:43:40.027Z,21.28
2022-10-01T04:46:07.454Z,21.14
2022-10-01T04:48:34.852Z,21.59
2022-10-01T04:51:02.199Z,21.61
2022-10-01T04:53:29.534Z,20.98
2022-10-01T04:55:57.382Z,21.29
2022-10-01T04:58:25.139Z,21.09
2022-10-01T05:00:56.423Z,20.98
2022-10-01T05:03:25.840Z,21.54
2022-10-01T05:05:53.239Z,20.97
2022-10-01T05:08:20.586Z,21.51
2022-10-01T05:10:47.955Z,21.67
2022-10-01T05:13:15.291Z,21.33
2022-10-01T05:15:42.939Z,21.30
2022-10-01T05:18:11.752Z,21.66
2022-10-01T05:20:39.126Z,21.53
2022-10-01T05:23:06.486Z,21.60
2022-10-01T05:25:33.879Z,21.51
2022-10-01T05:28:02.621Z,21.80
2022-10-01T05:30:30.052Z,21.73
2022-10-01T05:32:59.708Z,21.56
2022-10-01T05:35:29.395Z,21.45
2022-10-01T05:37:57.006Z,21.91
2022-10-01T05:40:24.800Z,21.45
2022-10-01T05:42:52.151Z,21.32
2022-10-01T05:45:19.783Z,21.67
2022-10-01T05:47:47.298Z,21.59
2022-10-01T05:50:14.857Z,21.40
2022-10-01T05:52:49.833Z,21.49
2022-10-01T05:55:17.215Z,21.40
2022-10-01T05:57:44.561Z,21.17
2022-10-01T06:00:12.694Z,21.24
2022-10-01T06:02:40.022Z,21.17
2022-10-01T06:05:07.831Z,21.16
2022-10-01T06:07:35.181Z,20.96
2022-10-01T06:10:04.477Z,21.46
2022-10-01T06:12:31.797Z,21.25
2022-10-01T06:14:59.143Z,21.64
2022-10-01T06:17:26.502Z,21.43
2022-10-01T06:19:53.839Z,21.36
2022-10-01T06:22:21.235Z,21.80
2022-10-01T06:24:48.564Z,21.32
2022-10-01T06:27:17.456Z,21.13
2022-10-01T06:29:47.547Z,21.14
2022-10-01T06:32:15.102Z,21.17
2022-10-01T06:34:42.434Z,21.67
2022-10-01T06:37:09.815Z,21.26
2022-10-01T06:39:37.254Z,21.56
2022-10-01T06:42:04.725Z,21.18
2022-10-01T06:44:33.542Z,21.36
2022-10-01T06:47:00.927Z,21.13
2022-10-01T06:49:28.316Z,21.36
2022-10-01T06:51:55.751Z,20.94
2022-10-01T06:54:23.693Z,20.97
2022-10-01T06:56:51.004Z,21.01
2022-10-01T06:59:18.409Z,20.90
2022-10-01T07:01:52.931Z,20.85
2022-10-01T07:04:22.878Z,20.93
2022-10-01T07:06:50.238Z,21.12
2022-10-01T07:09:17.620Z,20.90
2022-10-01T07:11:44.954Z,20.87
2022-10-01T07:14:12.369Z,20.85
2022-10-01T07:16:39.795Z,21.03
2022-10-01T07:19:08.696Z,20.97
2022-10-01T07:21:36.540Z,20.99
2022-10-01T07:24:04.324Z,21.25
2022-10-01T07:26:32.954Z,21.16
2022-10-01T07:29:00.302Z,21.21
2022-10-01T07:31:27.754Z,20.71
2022-10-01T07:33:57.434Z,21.13
2022-10-01T07:36:26.337Z,20.60
2022-10-01T07:38:53.660Z,21.21
2022-10-01T07:41:21.047Z,20.72
2022-10-01T07:43:48.399Z,20.78
2022-10-01T07:46:15.804Z,21.23
2022-10-01T07:48:43.279Z,21.36
2022-10-01T07:51:10.621Z,21.16
2022-10-01T07:53:39.405Z,20.92
2022-10-01T07:56:06.776Z,21.22
2022-10-01T07:58:34.135Z,20.90
2022-10-01T08:01:04.301Z,21.14
2022-10-01T08:03:31.721Z,20.98
2022-10-01T08:05:59.347Z,20.96
2022-10-01T08:08:26.710Z,20.95
2022-10-01T08:10:55.501Z,21.15
2022-10-01T08:13:22.920Z,21.04
2022-10-01T08:15:50.989Z,20.69
2022-10-01T08:18:18.330Z,20.72
2022-10-01T08:20:46.122Z,21.21
2022-10-01T08:23:15.487Z,20.77
2022-10-01T08:25:43.927Z,20.96
2022-10-01T08:28:13.034Z,21.14
2022-10-01T08:30:41.948Z,20.75
2022-10-01T08:33:11.594Z,20.62
2022-10-01T08:35:40.200Z,20.92
2022-10-01T08:38:08.229Z,20.54
2022-10-01T08:40:41.141Z,20.50
2022-10-01T08:43:21.776Z,20.76
2022-10-01T08:45:52.670Z,21.35
2022-10-01T08:48:29.697Z,20.55
2022-10-01T08:51:00.531Z,20.72
2022-10-01T08:53:33.723Z,20.68
2022-10-01T08:56:03.834Z,20.76
2022-10-01T08:58:41.548Z,20.77
2022-10-01T09:01:10.766Z,20.72
2022-10-01T09:03:39.547Z,20.98
2022-10-01T09:06:18.204Z,20.83
2022-10-01T09:09:06.399Z,20.76
2022-10-01T09:11:47.431Z,21.03
2022-10-01T09:14:31.358Z,20.52
2022-10-01T09:17:08.842Z,20.70
2022-10-01T09:19:52.879Z,20.98
2022-10-01T09:22:31.042Z,20.76
2022-10-01T09:25:05.422Z,20.85
2022-10-01T09:27:34.527Z,20.99
2022-10-01T09:30:05.355Z,20.74
2022-10-01T09:32:39.282Z,20.76
2022-10-01T09:35:20.538Z,20.41
2022-10-01T09:37:56.323Z,20.46
2022-10-01T09:40:33.083Z,20.67
2022-10-01T09:43:00.656Z,20.61
2022-10-01T09:45:29.746Z,20.56
2022-10-01T09:48:04.242Z,20.43
2022-10-01T09:50:39.794Z,20.50
2022-10-01T09:53:16.195Z,20.39
2022-10-01T09:55:47.832Z,20.13
2022-10-01T09:58:19.759Z,20.43
2022-10-01T10:00:48.596Z,20.44
2022-10-01T10:03:23.802Z,20.20
2022-10-01T10:05:51.646Z,20.36
2022-10-01T10:08:26.515Z,20.24
2022-10-01T10:10:58.667Z,20.56
2022-10-01T10:13:30.699Z,20.37
2022-10-01T10:16:01.183Z,20.16
2022-10-01T10:18:30.842Z,19.92
2022-10-01T10:21:01.906Z,20.35
2022-10-01T10:23:29.353Z,20.33
2022-10-01T10:25:58.527Z,20.13
2022-10-01T10:28:26.420Z,20.57
2022-10-01T10:30:55.967Z,20.18
2022-10-01T10:33:25.703Z,20.08
2022-10-01T10:36:00.351Z,20.38
2022-10-01T10:38:32.526Z,20.77
2022-10-01T10:41:00.794Z,20.72
2022-10-01T10:43:31.950Z,20.46
2022-10-01T10:45:59.733Z,20.36
2022-10-01T10:48:32.989Z,22.94
2022-10-01T10:51:01.891Z,21.59
2022-10-01T10:53:39.264Z,23.54
2022-10-01T10:56:14.810Z,23.14
2022-10-01T10:58:42.166Z,22.05
2022-10-01T11:01:13.800Z,21.86
2022-10-01T11:03:48.152Z,23.11
2022-10-01T11:06:16.909Z,22.37
2022-10-01T11:08:45.835Z,23.71
2022-10-01T11:11:26.666Z,23.94
2022-10-01T11:14:12.729Z,23.82
2022-10-01T11:16:51.287Z,23.49
2022-10-01T11:19:34.148Z,23.15
2022-10-01T11:22:19.855Z,22.29
2022-10-01T11:25:00.798Z,21.67
2022-10-01T11:27:39.909Z,21.69
2022-10-01T11:30:11.162Z,21.83
2022-10-01T11:32:42.894Z,22.02
2022-10-01T11:35:31.146Z,21.51
2022-10-01T11:38:20.274Z,21.46
2022-10-01T11:40:53.447Z,21.53
2022-10-01T11:43:24.820Z,21.09
2022-10-01T11:45:56.670Z,21.47
2022-10-01T11:48:28.591Z,21.03
2022-10-01T11:51:03.220Z,21.33
2022-10-01T11:53:35.215Z,21.43
2022-10-01T11:56:08.612Z,20.89
2022-10-01T11:58:43.431Z,20.85
2022-10-01T12:01:13.735Z,21.05
2022-10-01T12:04:02.291Z,20.99
2022-10-01T12:06:35.659Z,20.90
2022-10-01T12:09:08.471Z,20.92
2022-10-01T12:11:42.666Z,21.16
2022-10-01T12:14:15.680Z,20.83
2022-10-01T12:16:50.196Z,21.18
2022-10-01T12:19:23.265Z,21.47
2022-10-01T12:21:56.598Z,21.02
2022-10-01T12:24:29.173Z,20.74
2022-10-01T12:27:10.266Z,20.60
2022-10-01T12:29:46.232Z,20.75
2022-10-01T12:32:21.627Z,20.84
2022-10-01T12:35:01.867Z,21.13
2022-10-01T12:37:42.470Z,21.23
2022-10-01T12:40:26.375Z,20.96
2022-10-01T12:43:10.720Z,20.91
2022-10-01T12:45:51.035Z,20.86
2022-10-01T12:48:25.094Z,20.79
2022-10-01T12:51:14.591Z,22.60
2022-10-01T12:53:51.002Z,20.86
2022-10-01T12:56:26.175Z,21.13
2022-10-01T12:59:20.715Z,21.14
2022-10-01T13:01:58.848Z,20.68
2022-10-01T13:04:49.706Z,21.12
2022-10-01T13:07:30.863Z,21.15
2022-10-01T13:10:11.098Z,20.82
2022-10-01T13:12:59.061Z,20.77
2022-10-01T13:15:29.913Z,20.64
2022-10-01T13:18:06.341Z,20.82
2022-10-01T13:20:40.855Z,20.91
2022-10-01T13:23:16.344Z,20.56
2022-10-01T13:25:54.915Z,20.92
2022-10-01T13:28:26.846Z,20.81
2022-10-01T13:30:58.569Z,20.67
2022-10-01T13:33:27.540Z,20.74
2022-10-01T13:35:57.999Z,21.01
2022-10-01T13:38:30.976Z,20.78
2022-10-01T13:41:02.073Z,20.50
2022-10-01T13:43:31.736Z,20.89
2022-10-01T13:46:06.036Z,20.51
2022-10-01T13:48:35.714Z,21.11
2022-10-01T13:51:07.303Z,21.03
2022-10-01T13:53:38.198Z,20.86
2022-10-01T13:56:08.451Z,20.88
2022-10-01T13:58:39.054Z,21.01
2022-10-01T14:01:26.096Z,20.94
2022-10-01T14:04:02.008Z,20.67
2022-10-01T14:06:37.679Z,20.76
2022-10-01T14:09:11.014Z,20.94
2022-10-01T14:11:44.711Z,20.51
2022-10-01T14:14:19.438Z,20.43
2022-10-01T14:16:47.851Z,20.74
2022-10-01T14:19:19.200Z,20.65
2022-10-01T14:22:14.044Z,20.95
2022-10-01T14:24:57.973Z,20.90
2022-10-01T14:27:33.625Z,20.78
2022-10-01T14:30:06.351Z,20.63
2022-10-01T14:32:46.085Z,21.14
2022-10-01T14:35:25.839Z,20.85
2022-10-01T14:37:57.091Z,20.30
2022-10-01T14:40:24.892Z,21.00
2022-10-01T14:43:02.146Z,21.06
2022-10-01T14:45:30.243Z,20.88
2022-10-01T14:48:01.500Z,20.78
2022-10-01T14:50:32.633Z,20.60
2022-10-01T14:53:00.047Z,21.09
2022-10-01T14:55:29.365Z,21.18
2022-10-01T14:57:57.956Z,20.80
2022-10-01T15:00:29.719Z,21.33
2022-10-01T15:03:09.109Z,21.07
2022-10-01T15:05:37.159Z,20.84
2022-10-01T15:08:12.281Z,21.95
2022-10-01T15:10:41.889Z,21.07
2022-10-01T15:13:10.853Z,21.45
2022-10-01T15:15:42.635Z,21.48
2022-10-01T15:18:14.538Z,21.24
2022-10-01T15:20:52.114Z,20.92
2022-10-01T15:23:21.065Z,21.42
2022-10-01T15:25:49.163Z,21.50
2022-10-01T15:28:25.415Z,21.18
2022-10-01T15:30:56.196Z,21.22
2022-10-01T15:33:27.405Z,21.62
2022-10-01T15:35:57.549Z,21.17
2022-10-01T15:38:26.243Z,21.06
2022-10-01T15:41:05.000Z,21.36
2022-10-01T15:43:42.800Z,21.42
2022-10-01T15:46:17.723Z,21.27
2022-10-01T15:48:46.331Z,21.39
2022-10-01T15:51:22.255Z,21.86
2022-10-01T15:53:50.406Z,22.48
2022-10-01T15:56:21.052Z,21.48
2022-10-01T15:58:52.431Z,21.51
2022-10-01T16:01:25.332Z,21.48
2022-10-01T16:03:56.039Z,21.72
2022-10-01T16:06:27.104Z,21.62
2022-10-01T16:09:02.294Z,21.09
2022-10-01T16:11:30.747Z,21.49
2022-10-01T16:14:21.675Z,21.10
2022-10-01T16:17:11.382Z,21.30
2022-10-01T16:19:38.979Z,21.22
2022-10-01T16:22:14.818Z,21.93
2022-10-01T16:24:44.011Z,21.72
2022-10-01T16:27:15.430Z,21.34
2022-10-01T16:29:43.157Z,21.34
2022-10-01T16:32:14.558Z,21.45
2022-10-01T16:34:41.969Z,21.47
2022-10-01T16:37:09.490Z,21.75
2022-10-01T16:39:37.513Z,21.78
2022-10-01T16:42:22.708Z,21.65
2022-10-01T16:44:51.739Z,21.39
2022-10-01T16:47:20.661Z,21.62
2022-10-01T16:49:50.413Z,21.62
2022-10-01T16:52:18.005Z,21.38
2022-10-01T16:54:45.404Z,21.45
2022-10-01T16:57:12.945Z,21.67
2022-10-01T16:59:40.444Z,21.61
2022-10-01T17:02:11.874Z,21.45
2022-10-01T17:04:41.452Z,21.45
2022-10-01T17:07:09.036Z,21.74
2022-10-01T17:09:36.429Z,21.81
2022-10-01T17:12:04.021Z,21.42
2022-10-01T17:14:31.456Z,21.90
2022-10-01T17:16:58.888Z,21.83
2022-10-01T17:19:26.915Z,21.43
2022-10-01T17:21:55.741Z,21.78
2022-10-01T17:24:23.173Z,22.11
2022-10-01T17:26:50.710Z,21.64
2022-10-01T17:29:18.075Z,21.58
2022-10-01T17:31:45.536Z,21.79
2022-10-01T17:34:13.010Z,21.56
2022-10-01T17:36:40.547Z,21.62
2022-10-01T17:39:09.418Z,21.50
2022-10-01T17:41:37.046Z,21.46
2022-10-01T17:44:04.491Z,21.83
2022-10-01T17:46:32.095Z,21.63
2022-10-01T17:48:59.701Z,22.13
2022-10-01T17:51:27.269Z,21.80
2022-10-01T17:53:55.065Z,21.53
2022-10-01T17:56:24.005Z,21.49
2022-10-01T17:58:53.507Z,21.94
2022-10-01T18:01:21.595Z,21.46
2022-10-01T18:03:52.862Z,21.68
2022-10-01T18:06:20.430Z,21.99
2022-10-01T18:08:56.523Z,21.67
2022-10-01T18:11:26.491Z,22.25
2022-10-01T18:13:53.937Z,21.69
2022-10-01T18:16:22.135Z,21.63
2022-10-01T18:21:43.708Z,21.61
2022-10-01T18:24:11.269Z,21.94
2022-10-01T18:26:40.202Z,21.75
2022-10-01T18:29:07.624Z,22.31
2022-10-01T18:31:36.534Z,21.91
2022-10-01T18:34:11.877Z,21.84
2022-10-01T18:36:45.575Z,22.00
2022-10-01T18:39:19.336Z,21.74
2022-10-01T18:41:50.536Z,21.63
2022-10-01T18:44:20.479Z,22.26
2022-10-01T18:47:09.183Z,21.71
2022-10-01T18:49:55.690Z,21.64
2022-10-01T18:52:35.045Z,22.25
2022-10-01T18:55:24.241Z,22.31
2022-10-01T18:58:18.421Z,22.40
2022-10-01T19:00:56.876Z,21.95
2022-10-01T19:03:56.414Z,21.92
2022-10-01T19:06:40.891Z,21.97
2022-10-01T19:09:19.931Z,21.84
2022-10-01T19:11:57.667Z,22.50
2022-10-01T19:14:48.805Z,22.05
2022-10-01T19:17:27.145Z,21.88
2022-10-01T19:20:05.330Z,22.10
2022-10-01T19:22:57.888Z,22.01
2022-10-01T19:25:33.316Z,21.97
2022-10-01T19:28:10.392Z,22.45
2022-10-01T19:30:49.584Z,22.15
2022-10-01T19:33:21.609Z,21.87
2022-10-01T19:35:53.507Z,21.90
2022-10-01T19:38:26.708Z,22.28
2022-10-01T19:40:59.492Z,22.27
2022-10-01T19:43:32.574Z,22.46
2022-10-01T19:46:06.723Z,21.93
2022-10-01T19:48:44.855Z,22.21
2022-10-01T19:51:15.352Z,22.43
2022-10-01T19:53:45.954Z,21.91
2022-10-01T19:56:17.549Z,22.30
2022-10-01T19:58:46.180Z,22.49
2022-10-01T20:01:20.219Z,22.20
2022-10-01T20:03:53.755Z,21.88
2022-10-01T20:06:28.717Z,21.97
2022-10-01T20:09:00.264Z,22.16
2022-10-01T20:11:31.168Z,22.36
2022-10-01T20:14:29.636Z,22.13
2022-10-01T20:16:58.847Z,22.19
2022-10-01T20:19:34.165Z,22.33
2022-10-01T20:22:10.771Z,22.26
2022-10-01T20:24:52.016Z,22.39
2022-10-01T20:27:32.811Z,22.55
2022-10-01T20:30:05.142Z,22.35
2022-10-01T20:32:41.816Z,22.22
2022-10-01T20:35:24.819Z,22.74
2022-10-01T20:38:04.597Z,22.63
2022-10-01T20:40:35.257Z,23.05
2022-10-01T20:43:06.199Z,22.21
2022-10-01T20:45:35.026Z,22.16
2022-10-01T20:48:10.449Z,22.52
2022-10-01T20:50:42.006Z,22.24
2022-10-01T20:53:16.996Z,22.25
2022-10-01T20:55:47.964Z,22.11
2022-10-01T20:58:18.795Z,22.48
2022-10-01T21:00:47.792Z,22.24
2022-10-01T21:03:26.431Z,22.14
2022-10-01T21:05:57.756Z,22.48
2022-10-01T21:08:50.959Z,22.36
2022-10-01T21:11:26.962Z,22.72
2022-10-01T21:14:01.006Z,22.10
2022-10-01T21:16:46.916Z,22.71
2022-10-01T21:19:31.015Z,22.40
2022-10-01T21:22:13.320Z,22.31
2022-10-01T21:24:55.737Z,22.43
2022-10-01T21:27:37.278Z,22.21
2022-10-01T21:30:11.259Z,22.36
2022-10-01T21:33:04.505Z,22.62
2022-10-01T21:35:42.065Z,22.34
2022-10-01T21:38:17.163Z,22.36
2022-10-01T21:40:59.155Z,22.15
2022-10-01T21:43:41.148Z,22.35
2022-10-01T21:46:19.371Z,22.58
2022-10-01T21:48:56.109Z,22.25
2022-10-01T21:51:37.592Z,22.45
2022-10-01T21:54:19.923Z,22.65
2022-10-01T21:57:07.738Z,22.14
2022-10-01T22:00:08.902Z,22.29
2022-10-01T22:02:46.443Z,22.53
2022-10-01T22:05:22.609Z,22.80
2022-10-01T22:07:59.620Z,22.38
2022-10-01T22:10:32.302Z,22.19
2022-10-01T22:13:04.498Z,22.44
2022-10-01T22:15:37.256Z,22.33
2022-10-01T22:18:07.830Z,22.13
2022-10-01T22:20:35.383Z,22.22
2022-10-01T22:23:09.121Z,22.54
2022-10-01T22:25:43.374Z,22.60
2022-10-01T22:28:16.791Z,22.33
2022-10-01T22:30:46.634Z,22.60
2022-10-01T22:33:16.593Z,22.79
2022-10-01T22:35:51.626Z,22.70
2022-10-01T22:38:24.090Z,22.50
2022-10-01T22:40:56.432Z,22.25
2022-10-01T22:43:23.839Z,22.64
2022-10-01T22:46:11.080Z,22.43
2022-10-01T22:48:51.359Z,22.80
2022-10-01T22:51:45.356Z,22.49
2022-10-01T22:54:29.423Z,22.77
2022-10-01T22:57:07.175Z,22.78
2022-10-01T22:59:48.290Z,22.62
2022-10-01T23:02:24.838Z,22.47
2022-10-01T23:05:04.108Z,22.64
2022-10-01T23:07:41.358Z,22.25
2022-10-01T23:10:16.362Z,22.76
2022-10-01T23:12:54.259Z,22.65
2022-10-01T23:15:31.980Z,22.95
2022-10-01T23:18:08.356Z,22.63
2022-10-01T23:20:41.376Z,22.51
2022-10-01T23:23:30.299Z,22.43
2022-10-01T23:26:23.137Z,22.33
2022-10-01T23:29:04.108Z,23.00
2022-10-01T23:31:40.474Z,22.50
2022-10-01T23:34:24.300Z,22.56
2022-10-01T23:37:04.432Z,22.77
2022-10-01T23:39:45.420Z,22.13
2022-10-01T23:42:27.104Z,22.37
2022-10-01T23:45:06.051Z,22.71
2022-10-01T23:47:41.907Z,22.37
2022-10-01T23:50:21.154Z,22.26
2022-10-01T23:52:57.741Z,22.38
2022-10-01T23:55:40.182Z,22.31
2022-10-01T23:58:15.161Z,22.71
